Time;durP1;ratioP1;P1;durP2;ratioP2;P2;SDS_P1;SDS_P2;PMS_P1;PMS_P2;Temp;Humidity;BMP_temperature;BMP_pressure;BME280_temperature;BME280_humidity;BME280_pressure;Samples;Min_cycle;Max_cycle;Signal;HPM_P1;HPM_P2
2023/01/07 00:02:22;;;;;;;30.05;17.23;;;9.60;99.90;;;;;;6160151;23;20013;-85
2023/01/07 00:04:47;;;;;;;31.88;16.77;;;11.20;99.90;;;;;;6186656;23;20044;-85
2023/01/07 00:07:22;;;;;;;33.67;17.50;;;10.40;99.90;;;;;;6158779;23;20331;-85
2023/01/07 00:10:07;;;;;;;33.65;18.50;;;11.10;99.90;;;;;;6186789;23;20017;-85
2023/01/07 00:12:44;;;;;;;32.63;17.85;;;9.80;99.90;;;;;;6158373;23;20430;-85
2023/01/07 00:15:10;;;;;;;31.30;17.42;;;9.80;99.90;;;;;;6185993;23;20047;-85
2023/01/07 00:17:56;;;;;;;34.53;18.20;;;9.70;99.90;;;;;;6070169;23;20034;-85
2023/01/07 00:20:34;;;;;;;33.72;19.13;;;9.70;99.90;;;;;;6093802;23;20237;-85
2023/01/07 00:23:18;;;;;;;36.35;19.15;;;9.70;99.90;;;;;;6094727;23;20022;-85
2023/01/07 00:26:35;;;;;;;36.75;19.33;;;10.60;99.90;;;;;;6137912;23;20085;-85
2023/01/07 00:29:26;;;;;;;37.00;19.83;;;9.10;99.90;;;;;;6159252;23;20021;-85
2023/01/07 00:32:04;;;;;;;38.60;19.30;;;9.70;99.90;;;;;;6186264;23;20024;-85
2023/01/07 00:34:39;;;;;;;37.50;19.38;;;11.30;99.90;;;;;;6158340;23;20021;-85
2023/01/07 00:37:48;;;;;;;36.25;19.13;;;11.20;99.90;;;;;;6186095;23;20024;-85
2023/01/07 00:40:10;;;;;;;37.70;20.63;;;9.00;99.90;;;;;;6185030;23;20032;-85
2023/01/07 00:43:34;;;;;;;37.05;20.25;;;9.90;99.90;;;;;;6185419;23;20032;-85
2023/01/07 00:45:59;;;;;;;35.05;19.30;;;10.00;99.90;;;;;;6065964;23;20019;-85
2023/01/07 00:48:37;;;;;;;36.20;19.63;;;10.90;99.90;;;;;;6040798;23;20357;-85
2023/01/07 00:51:20;;;;;;;36.58;19.77;;;11.30;99.90;;;;;;6065862;23;20054;-85
2023/01/07 00:54:22;;;;;;;39.17;20.57;;;11.50;99.90;;;;;;6066423;23;20019;-85
2023/01/07 00:56:59;;;;;;;36.45;20.15;;;11.50;99.90;;;;;;6041094;23;20055;-85
2023/01/07 00:59:30;;;;;;;37.92;20.60;;;10.90;99.90;;;;;;6083180;23;20032;-85
2023/01/07 01:02:11;;;;;;;35.60;20.55;;;9.90;99.90;;;;;;6164688;23;20524;-85
2023/01/07 01:04:51;;;;;;;36.65;20.63;;;10.00;99.90;;;;;;6186006;23;20021;-85
2023/01/07 01:07:27;;;;;;;39.80;20.67;;;11.10;99.90;;;;;;6159443;23;20021;-85
2023/01/07 01:10:10;;;;;;;36.88;20.88;;;9.80;99.90;;;;;;6151431;23;20017;-85
2023/01/07 01:12:43;;;;;;;39.40;21.05;;;9.90;99.90;;;;;;6159669;23;20405;-85
2023/01/07 01:15:29;;;;;;;40.95;21.42;;;10.60;99.90;;;;;;6159302;23;20013;-85
2023/01/07 01:18:15;;;;;;;39.23;21.07;;;9.00;99.90;;;;;;6184690;23;20473;-85
2023/01/07 01:21:04;;;;;;;35.17;19.90;;;10.50;99.90;;;;;;6159813;23;20032;-85
2023/01/07 01:23:42;;;;;;;36.37;19.73;;;10.00;99.90;;;;;;6158229;23;20103;-85
2023/01/07 01:26:20;;;;;;;35.57;20.50;;;11.70;99.90;;;;;;6158997;23;20013;-85
2023/01/07 01:28:57;;;;;;;36.53;20.38;;;11.50;99.90;;;;;;6159346;23;20108;-85
2023/01/07 01:31:38;;;;;;;36.10;20.38;;;11.50;99.90;;;;;;6165666;23;20072;-85
2023/01/07 01:34:04;;;;;;;35.38;21.05;;;11.30;99.90;;;;;;6186769;23;20008;-84
2023/01/07 01:36:44;;;;;;;34.97;20.05;;;11.10;99.90;;;;;;6202084;23;20021;-84
2023/01/07 01:39:28;;;;;;;37.40;20.80;;;10.60;99.90;;;;;;6186223;23;20013;-85
2023/01/07 01:42:14;;;;;;;36.63;20.45;;;10.10;99.90;;;;;;6159507;23;20079;-85
2023/01/07 01:44:55;;;;;;;34.13;19.10;;;11.60;99.90;;;;;;6158984;23;20017;-85
2023/01/07 01:47:39;;;;;;;35.55;19.90;;;11.30;99.90;;;;;;6185074;23;20434;-85
2023/01/07 01:50:55;;;;;;;34.55;19.70;;;10.20;99.90;;;;;;6158507;23;20016;-85
2023/01/07 01:53:40;;;;;;;32.80;19.50;;;11.70;99.90;;;;;;6158476;23;20021;-85
2023/01/07 01:59:39;;;;;;;31.15;19.15;;;11.60;99.90;;;;;;6183701;23;20084;-85
2023/01/07 02:02:28;;;;;;;35.22;19.92;;;11.60;99.90;;;;;;6185871;23;20123;-85
2023/01/07 02:05:18;;;;;;;30.27;18.00;;;10.30;99.90;;;;;;6185563;23;20024;-85
2023/01/07 02:07:59;;;;;;;31.45;18.65;;;10.20;99.90;;;;;;6185395;23;20393;-85
2023/01/07 02:10:47;;;;;;;29.08;17.80;;;11.50;99.90;;;;;;6184902;23;20067;-85
2023/01/07 02:13:41;;;;;;;30.75;18.20;;;11.70;99.90;;;;;;6136208;23;20013;-85
2023/01/07 02:16:44;;;;;;;33.75;18.77;;;10.20;99.90;;;;;;6123239;23;20439;-85
2023/01/07 02:19:32;;;;;;;32.40;19.08;;;9.40;99.90;;;;;;6127702;23;20093;-85
2023/01/07 02:22:36;;;;;;;34.83;19.60;;;10.10;99.90;;;;;;6155847;23;20049;-85
2023/01/07 02:25:11;;;;;;;36.90;19.17;;;9.50;99.90;;;;;;6155762;23;20140;-84
2023/01/07 02:28:16;;;;;;;35.78;20.05;;;10.00;99.90;;;;;;6128682;23;20338;-84
2023/01/07 02:31:01;;;;;;;33.22;17.90;;;10.10;99.90;;;;;;6128870;23;20024;-85
2023/01/07 02:34:03;;;;;;;33.20;19.20;;;11.20;99.90;;;;;;6127949;23;20025;-84
2023/01/07 02:36:43;;;;;;;30.73;18.58;;;10.00;99.90;;;;;;6128706;23;20073;-85
2023/01/07 02:43:03;;;;;;;35.73;19.80;;;11.60;99.90;;;;;;6127103;23;20100;-84
2023/01/07 02:46:09;;;;;;;34.13;19.60;;;10.00;99.90;;;;;;6127406;23;20442;-84
2023/01/07 02:48:36;;;;;;;33.90;18.80;;;10.00;99.90;;;;;;6154595;23;20071;-84
2023/01/07 02:51:08;;;;;;;31.63;19.13;;;11.40;99.90;;;;;;6155256;23;20017;-85
2023/01/07 02:53:42;;;;;;;35.77;20.27;;;10.00;99.90;;;;;;6155467;23;20014;-85
2023/01/07 02:56:32;;;;;;;;;;;11.20;99.90;;;;;;6128618;23;20080;-85
2023/01/07 02:59:37;;;;;;;32.70;18.90;;;10.00;99.90;;;;;;6129032;23;19947;-85
2023/01/07 03:02:40;;;;;;;31.20;18.73;;;9.40;99.90;;;;;;6127425;23;20079;-85
2023/01/07 03:05:46;;;;;;;29.27;17.57;;;10.00;99.90;;;;;;6154765;23;20092;-85
2023/01/07 03:08:57;;;;;;;30.55;18.98;;;10.10;99.90;;;;;;6153284;23;20013;-85
2023/01/07 03:15:00;;;;;;;30.70;18.55;;;10.00;99.90;;;;;;6011517;23;20090;-85
2023/01/07 03:18:20;;;;;;;26.90;17.55;;;11.70;99.90;;;;;;6035065;23;20031;-86
2023/01/07 03:20:53;;;;;;;28.63;17.40;;;11.10;99.90;;;;;;5982473;23;20030;-86
2023/01/07 03:23:28;;;;;;;26.88;16.75;;;11.10;99.90;;;;;;6011059;23;20026;-83
2023/01/07 03:26:02;;;;;;;28.73;18.02;;;10.10;99.90;;;;;;6097305;23;20013;-83
2023/01/07 03:28:34;;;;;;;26.80;17.35;;;10.10;99.90;;;;;;6157655;23;20021;-84
2023/01/07 03:31:04;;;;;;;29.85;17.58;;;11.30;99.90;;;;;;6183574;23;20020;-84
2023/01/07 03:34:29;;;;;;;28.17;17.33;;;10.10;99.90;;;;;;6157272;23;20017;-84
2023/01/07 03:37:08;;;;;;;25.37;16.57;;;10.10;99.90;;;;;;6038177;23;20038;-85
2023/01/07 03:39:41;;;;;;;24.70;15.70;;;10.00;99.90;;;;;;6039404;23;20179;-84
2023/01/07 03:45:16;;;;;;;24.90;16.10;;;9.40;99.90;;;;;;6063848;23;20023;-85
2023/01/07 03:48:13;;;;;;;25.17;15.88;;;10.00;99.90;;;;;;6024086;23;20030;-85
2023/01/07 03:50:39;;;;;;;26.35;16.35;;;9.90;99.90;;;;;;6039684;23;20026;-84
2023/01/07 03:53:13;;;;;;;28.65;15.40;;;11.40;99.90;;;;;;6040808;23;20026;-85
2023/01/07 03:56:16;;;;;;;22.48;14.07;;;11.00;99.90;;;;;;6040866;23;20038;-85
2023/01/07 03:58:51;;;;;;;23.23;14.45;;;8.90;99.90;;;;;;6063968;23;20067;-86
2023/01/07 04:01:21;;;;;;;23.77;13.80;;;11.10;99.90;;;;;;6109750;23;20410;-85
2023/01/07 04:03:55;;;;;;;22.35;13.57;;;9.60;99.90;;;;;;6184662;23;20453;-85
2023/01/07 04:06:27;;;;;;;22.27;14.65;;;11.60;99.90;;;;;;6156724;23;20092;-85
2023/01/07 04:08:56;;;;;;;22.80;13.57;;;10.00;99.90;;;;;;6184603;23;20009;-86
2023/01/07 04:11:31;;;;;;;19.67;13.07;;;11.10;99.90;;;;;;6162898;23;20345;-86
2023/01/07 04:15:01;;;;;;;20.98;13.20;;;9.90;99.90;;;;;;6213933;23;20096;-85
2023/01/07 04:17:33;;;;;;;21.83;13.25;;;9.40;99.90;;;;;;6187192;23;20027;-85
2023/01/07 04:20:02;;;;;;;20.13;13.00;;;9.90;99.90;;;;;;6213733;23;20017;-85
2023/01/07 04:22:30;;;;;;;22.00;13.32;;;9.90;99.90;;;;;;6187097;23;20021;-85
2023/01/07 04:25:02;;;;;;;21.40;13.35;;;10.40;99.90;;;;;;6181693;23;20017;-85
2023/01/07 04:27:33;;;;;;;21.05;12.93;;;9.80;99.90;;;;;;6185774;23;20131;-85
2023/01/07 04:29:58;;;;;;;19.58;12.50;;;11.10;99.90;;;;;;6214701;23;20017;-85
2023/01/07 04:32:36;;;;;;;19.92;12.23;;;9.90;99.90;;;;;;6187331;23;20027;-85
2023/01/07 04:35:08;;;;;;;20.48;12.93;;;11.20;99.90;;;;;;6189198;23;20012;-86
2023/01/07 04:37:40;;;;;;;21.55;12.63;;;11.30;99.90;;;;;;6190123;23;20020;-85
2023/01/07 04:40:15;;;;;;;22.95;12.50;;;10.90;99.90;;;;;;6219696;22;20017;-85
2023/01/07 04:42:49;;;;;;;21.30;11.85;;;9.80;99.90;;;;;;6218273;22;20016;-85
2023/01/07 04:45:15;;;;;;;22.67;12.85;;;10.10;99.90;;;;;;6199355;23;20035;-86
2023/01/07 04:47:57;;;;;;;21.15;11.90;;;9.80;99.90;;;;;;6191389;23;20040;-85
2023/01/07 04:50:23;;;;;;;19.85;12.07;;;9.90;99.90;;;;;;6189872;23;20015;-85
2023/01/07 04:52:52;;;;;;;19.33;11.60;;;11.00;99.90;;;;;;6216605;23;20043;-86
2023/01/07 04:55:23;;;;;;;19.17;11.50;;;10.90;99.90;;;;;;6215008;23;20009;-86
2023/01/07 04:57:54;;;;;;;18.20;11.07;;;9.20;99.90;;;;;;6216068;23;20048;-85
2023/01/07 05:00:32;;;;;;;18.73;11.30;;;10.70;99.90;;;;;;6188888;23;20009;-85
2023/01/07 05:03:16;;;;;;;17.08;10.43;;;10.80;99.90;;;;;;6214681;23;20104;-86
2023/01/07 05:05:53;;;;;;;18.20;10.68;;;10.80;99.90;;;;;;6215210;23;20039;-85
2023/01/07 05:08:25;;;;;;;17.80;10.43;;;11.20;99.90;;;;;;6214638;23;20016;-85
2023/01/07 05:11:07;;;;;;;16.23;9.52;;;9.90;99.90;;;;;;6193820;23;20020;-86
2023/01/07 05:14:23;;;;;;;15.90;10.00;;;9.80;99.90;;;;;;6188982;23;20048;-85
2023/01/07 05:16:56;;;;;;;16.60;10.05;;;9.00;99.90;;;;;;6214833;23;20064;-86
2023/01/07 05:19:40;;;;;;;19.00;10.73;;;11.30;99.90;;;;;;6188787;23;20020;-86
2023/01/07 05:22:24;;;;;;;17.17;9.15;;;10.90;99.90;;;;;;6187864;23;20012;-86
2023/01/07 05:28:04;;;;;;;16.95;9.30;;;11.10;99.90;;;;;;6188812;23;19920;-85
2023/01/07 05:30:45;;;;;;;17.35;9.95;;;11.10;99.90;;;;;;6187752;23;20017;-86
2023/01/07 05:33:32;;;;;;;17.88;9.50;;;9.70;99.90;;;;;;6188694;23;20020;-85
2023/01/07 05:36:19;;;;;;;16.70;9.40;;;10.00;99.90;;;;;;6188452;23;20009;-85
2023/01/07 05:39:04;;;;;;;15.52;9.35;;;9.90;99.90;;;;;;6214890;23;20079;-85
2023/01/07 05:41:29;;;;;;;15.52;9.18;;;9.70;99.90;;;;;;6215209;23;20437;-85
2023/01/07 05:44:10;;;;;;;16.42;8.95;;;9.60;99.90;;;;;;6188057;23;20019;-85
2023/01/07 05:46:51;;;;;;;15.23;9.32;;;10.90;99.90;;;;;;6196087;23;20059;-85
2023/01/07 05:49:39;;;;;;;17.00;9.15;;;11.10;99.90;;;;;;6188436;23;20044;-85
2023/01/07 05:52:20;;;;;;;17.50;9.02;;;8.90;99.90;;;;;;6182005;23;20017;-85
2023/01/07 05:54:46;;;;;;;15.63;8.65;;;10.90;99.90;;;;;;6159231;23;20442;-85
2023/01/07 05:57:27;;;;;;;14.52;9.05;;;10.90;99.90;;;;;;6157149;23;20052;-86
2023/01/07 05:59:53;;;;;;;17.50;9.20;;;10.70;99.90;;;;;;6158705;23;20017;-86
2023/01/07 06:02:23;;;;;;;16.45;8.80;;;10.10;99.90;;;;;;6185117;23;20028;-84
2023/01/07 06:05:24;;;;;;;;;;;;;;;;;;;;;
2023/01/07 06:08:03;;;;;;;16.55;8.30;;;9.70;99.90;;;;;;6093799;23;20052;-84
2023/01/07 06:10:46;;;;;;;15.77;9.07;;;9.60;99.90;;;;;;6158137;23;20017;-84
2023/01/07 06:13:12;;;;;;;14.40;8.27;;;10.80;99.90;;;;;;6157532;23;20017;-84
2023/01/07 06:15:58;;;;;;;14.88;8.50;;;9.60;99.90;;;;;;6177181;23;20369;-84
2023/01/07 06:18:42;;;;;;;14.73;8.63;;;8.60;99.90;;;;;;6182873;23;20465;-84
2023/01/07 06:21:20;;;;;;;13.80;8.40;;;10.30;99.90;;;;;;6189553;23;20017;-84
2023/01/07 06:23:48;;;;;;;14.43;8.57;;;8.60;99.90;;;;;;6159185;23;20446;-84
2023/01/07 06:26:25;;;;;;;15.10;8.43;;;10.70;99.90;;;;;;6157300;23;20012;-84
2023/01/07 06:29:07;;;;;;;17.15;9.85;;;10.50;99.90;;;;;;6158866;23;20088;-84
2023/01/07 06:31:50;;;;;;;17.85;10.00;;;10.30;99.90;;;;;;6184664;23;20021;-84
2023/01/07 06:34:35;;;;;;;17.45;9.63;;;9.50;99.90;;;;;;6157680;23;20059;-84
2023/01/07 06:37:20;;;;;;;19.30;10.63;;;10.10;99.90;;;;;;6160131;23;20023;-85
2023/01/07 06:39:46;;;;;;;17.80;11.25;;;10.10;99.90;;;;;;6158025;23;20028;-84
2023/01/07 06:42:25;;;;;;;16.85;10.25;;;10.30;99.90;;;;;;6188164;23;20021;-85
2023/01/07 06:45:13;;;;;;;18.58;10.43;;;11.10;99.90;;;;;;6160144;23;20070;-85
2023/01/07 06:47:39;;;;;;;17.13;9.70;;;8.80;99.90;;;;;;6184966;23;20017;-85
2023/01/07 06:50:26;;;;;;;16.30;10.10;;;10.50;99.90;;;;;;6160146;23;20024;-85
2023/01/07 06:52:51;;;;;;;16.73;9.70;;;9.40;99.90;;;;;;6160382;23;20020;-85
2023/01/07 06:55:35;;;;;;;14.80;8.75;;;10.40;99.90;;;;;;6186303;23;20017;-85
2023/01/07 06:58:09;;;;;;;14.73;8.23;;;10.50;99.90;;;;;;6192764;23;20017;-85
2023/01/07 07:00:35;;;;;;;13.32;7.90;;;8.60;99.90;;;;;;6185789;23;20521;-84
2023/01/07 07:04:06;;;;;;;13.85;7.97;;;10.70;99.90;;;;;;6168959;23;20018;-85
2023/01/07 07:06:57;;;;;;;14.57;8.00;;;8.60;99.90;;;;;;6130350;23;20347;-85
2023/01/07 07:09:35;;;;;;;13.90;8.02;;;9.00;99.90;;;;;;6155961;23;20023;-85
2023/01/07 07:12:16;;;;;;;13.85;8.15;;;10.80;99.90;;;;;;6130943;23;20017;-85
2023/01/07 07:14:57;;;;;;;14.68;7.80;;;10.60;99.90;;;;;;6129337;23;20020;-84
2023/01/07 07:17:37;;;;;;;13.15;7.68;;;10.40;99.90;;;;;;6156034;23;20126;-85
2023/01/07 07:20:17;;;;;;;13.07;7.55;;;9.40;99.90;;;;;;6123113;23;20021;-85
2023/01/07 07:23:04;;;;;;;13.43;7.88;;;9.30;99.90;;;;;;6129680;23;20030;-85
2023/01/07 07:25:38;;;;;;;13.52;7.85;;;9.30;99.90;;;;;;6159473;23;20005;-85
2023/01/07 07:28:10;;;;;;;18.02;10.52;;;10.60;99.90;;;;;;6130464;23;20018;-85
2023/01/07 07:30:36;;;;;;;11.93;7.10;;;10.30;99.90;;;;;;6156877;23;20022;-85
2023/01/07 07:33:11;;;;;;;14.45;7.32;;;10.20;99.90;;;;;;6133675;23;20017;-85
2023/01/07 07:35:53;;;;;;;12.52;7.20;;;9.20;99.90;;;;;;6128699;23;20021;-83
2023/01/07 07:38:41;;;;;;;14.43;7.50;;;9.20;99.90;;;;;;6157046;23;20190;-84
2023/01/07 07:41:06;;;;;;;13.77;7.25;;;9.20;99.90;;;;;;6131053;23;20018;-84
2023/01/07 07:43:34;;;;;;;13.80;8.35;;;9.70;99.90;;;;;;6130041;23;20071;-83
2023/01/07 07:46:15;;;;;;;13.48;7.07;;;10.20;99.90;;;;;;6157838;23;20020;-83
2023/01/07 07:48:41;;;;;;;14.02;8.00;;;10.10;99.90;;;;;;6131018;23;20522;-84
2023/01/07 07:51:22;;;;;;;12.98;7.20;;;9.10;99.90;;;;;;6130096;23;20025;-84
2023/01/07 07:54:03;;;;;;;13.85;7.40;;;10.30;99.90;;;;;;6156937;23;20052;-84
2023/01/07 07:56:47;;;;;;;13.65;7.38;;;9.10;99.90;;;;;;6156401;23;20358;-84
2023/01/07 07:59:12;;;;;;;14.40;7.63;;;10.50;99.90;;;;;;6129844;23;20565;-83
2023/01/07 08:01:48;;;;;;;14.32;7.30;;;9.10;99.90;;;;;;6158163;23;20076;-83
2023/01/07 08:04:39;;;;;;;14.52;8.02;;;9.10;99.90;;;;;;6152556;23;20024;-84
2023/01/07 08:07:15;;;;;;;13.82;6.25;;;9.20;99.90;;;;;;6129506;23;20021;-83
2023/01/07 08:09:52;;;;;;;12.13;5.80;;;10.70;99.90;;;;;;6130136;23;20044;-83
2023/01/07 08:12:43;;;;;;;12.52;6.50;;;7.80;99.90;;;;;;6131774;23;20057;-84
2023/01/07 08:15:09;;;;;;;11.07;5.85;;;9.10;99.90;;;;;;6131837;23;20021;-81
2023/01/07 08:17:35;;;;;;;12.10;6.00;;;9.10;99.90;;;;;;6131734;23;20020;-82
2023/01/07 08:20:01;;;;;;;10.55;5.75;;;9.10;99.90;;;;;;6124235;23;20009;-82
2023/01/07 08:22:28;;;;;;;13.02;5.55;;;9.60;99.90;;;;;;6158025;23;20017;-82
2023/01/07 08:24:54;;;;;;;14.65;5.55;;;9.00;99.90;;;;;;6130911;23;20060;-81
2023/01/07 08:27:19;;;;;;;11.07;5.38;;;9.00;99.90;;;;;;6130188;23;20013;-81
2023/01/07 08:29:45;;;;;;;11.80;5.35;;;9.00;99.90;;;;;;6130315;23;20017;-81
2023/01/07 08:32:26;;;;;;;10.30;5.15;;;9.00;99.90;;;;;;6152494;23;20025;-81
2023/01/07 08:34:52;;;;;;;10.02;5.03;;;9.30;99.90;;;;;;6156322;23;20522;-81
2023/01/07 08:37:30;;;;;;;11.90;5.10;;;9.00;99.90;;;;;;6129655;23;20458;-81
2023/01/07 08:39:56;;;;;;;10.38;5.00;;;10.60;99.90;;;;;;6155772;23;20017;-82
2023/01/07 08:42:21;;;;;;;11.00;4.70;;;9.10;99.90;;;;;;6155868;23;20021;-81
2023/01/07 08:44:47;;;;;;;13.40;5.43;;;10.60;99.90;;;;;;6154877;23;20029;-81
2023/01/07 08:47:38;;;;;;;9.70;4.90;;;10.70;99.90;;;;;;6158124;23;20052;-81
2023/01/07 08:50:23;;;;;;;10.98;4.70;;;9.10;99.90;;;;;;6158801;23;20079;-81
2023/01/07 08:52:48;;;;;;;11.32;4.78;;;9.10;99.90;;;;;;6159500;23;20016;-81
2023/01/07 08:55:26;;;;;;;11.60;4.60;;;10.30;99.90;;;;;;6158018;23;20068;-81
2023/01/07 08:57:52;;;;;;;10.48;4.45;;;10.70;99.90;;;;;;6186102;23;20017;-82
2023/01/07 09:00:18;;;;;;;10.75;4.95;;;9.20;99.90;;;;;;6184417;23;20013;-81
2023/01/07 09:02:56;;;;;;;10.48;4.50;;;9.20;99.90;;;;;;6185220;23;20024;-81
2023/01/07 09:05:23;;;;;;;11.05;5.20;;;10.70;99.90;;;;;;6158624;23;20017;-81
2023/01/07 09:07:52;;;;;;;10.70;4.32;;;9.50;99.90;;;;;;6158776;23;20044;-81
2023/01/07 09:10:18;;;;;;;9.70;4.38;;;9.30;99.90;;;;;;6158407;23;20013;-81
2023/01/07 09:12:43;;;;;;;10.07;4.38;;;9.40;99.90;;;;;;6159340;23;20039;-81
2023/01/07 09:15:11;;;;;;;10.47;4.27;;;9.40;99.90;;;;;;6184093;23;20397;-83
2023/01/07 09:17:37;;;;;;;8.68;4.13;;;10.70;99.90;;;;;;6159451;23;20087;-82
2023/01/07 09:20:04;;;;;;;9.23;4.15;;;10.00;99.90;;;;;;6186737;23;20013;-82
2023/01/07 09:22:30;;;;;;;9.50;3.90;;;9.30;99.90;;;;;;6185129;23;20096;-82
2023/01/07 09:24:56;;;;;;;8.85;3.95;;;9.60;99.90;;;;;;6159514;23;20439;-82
2023/01/07 09:27:34;;;;;;;9.18;4.13;;;9.40;99.90;;;;;;6185564;23;20047;-82
2023/01/07 09:30:15;;;;;;;8.52;3.78;;;9.40;99.90;;;;;;6183756;23;20028;-83
2023/01/07 09:32:42;;;;;;;8.68;3.70;;;9.50;99.90;;;;;;6185795;23;20021;-83
2023/01/07 09:35:20;;;;;;;9.48;3.60;;;10.50;99.90;;;;;;6185167;23;20092;-83
2023/01/07 09:37:58;;;;;;;7.72;3.35;;;10.90;99.90;;;;;;6185677;23;20025;-83
2023/01/07 09:40:52;;;;;;;9.30;3.20;;;11.10;99.90;;;;;;6185419;23;20080;-84
2023/01/07 09:43:40;;;;;;;7.20;2.78;;;8.90;99.90;;;;;;6148987;23;20017;-83
2023/01/07 09:46:14;;;;;;;7.57;3.00;;;9.80;99.90;;;;;;6129381;23;20033;-82
2023/01/07 09:49:01;;;;;;;8.13;3.13;;;11.40;99.90;;;;;;6130241;23;20096;-83
2023/01/07 09:51:58;;;;;;;7.45;2.80;;;9.30;99.90;;;;;;6157024;23;20017;-83
2023/01/07 09:54:34;;;;;;;7.60;2.95;;;10.10;99.90;;;;;;6184368;23;20059;-82
2023/01/07 09:57:26;;;;;;;8.65;2.72;;;10.10;99.90;;;;;;6158837;23;20017;-83
2023/01/07 10:00:16;;;;;;;8.82;2.92;;;10.10;99.90;;;;;;6158748;23;20017;-83
2023/01/07 10:03:08;;;;;;;8.65;2.65;;;10.10;99.90;;;;;;6184968;23;20013;-83
2023/01/07 10:06:16;;;;;;;7.55;2.50;;;10.40;99.90;;;;;;6183633;23;20017;-84
2023/01/07 10:09:25;;;;;;;6.70;2.40;;;10.40;99.90;;;;;;6158125;23;20024;-83
2023/01/07 10:12:30;;;;;;;8.77;2.70;;;9.70;99.90;;;;;;6157169;23;20113;-83
2023/01/07 10:15:31;;;;;;;7.13;2.30;;;10.40;99.90;;;;;;6157850;23;20013;-84
2023/01/07 10:18:41;;;;;;;8.25;2.42;;;10.30;99.90;;;;;;6157576;23;20457;-83
2023/01/07 10:21:25;;;;;;;8.07;2.80;;;10.50;99.90;;;;;;6184998;23;20047;-82
2023/01/07 10:24:02;;;;;;;7.22;2.53;;;10.50;99.90;;;;;;6158341;23;20442;-82
2023/01/07 10:26:42;;;;;;;7.60;2.42;;;11.60;99.90;;;;;;6156773;23;20049;-83
2023/01/07 10:29:47;;;;;;;7.53;2.40;;;12.10;99.90;;;;;;6183338;23;20071;-82
2023/01/07 10:32:21;;;;;;;7.10;2.58;;;10.60;99.90;;;;;;6181557;23;20454;-82
2023/01/07 10:35:08;;;;;;;;;;;10.60;99.90;;;;;;6158371;23;20013;-82
2023/01/07 10:37:42;;;;;;;6.38;2.30;;;11.20;99.90;;;;;;6157642;23;19991;-82
2023/01/07 10:40:29;;;;;;;;;;;12.10;99.90;;;;;;6158820;23;20108;-82
2023/01/07 10:43:21;;;;;;;6.63;2.22;;;11.30;99.90;;;;;;6161689;23;19916;-82
2023/01/07 10:46:18;;;;;;;7.85;2.40;;;12.10;99.90;;;;;;6157409;23;20025;-82
2023/01/07 10:49:34;;;;;;;7.15;2.28;;;10.60;99.90;;;;;;6157569;23;20028;-82
2023/01/07 10:52:29;;;;;;;;;;;10.50;99.90;;;;;;6182858;23;20032;-82
2023/01/07 10:55:23;;;;;;;7.40;2.45;;;10.50;99.90;;;;;;6151066;23;20330;-82
2023/01/07 10:57:49;;;;;;;7.78;2.38;;;10.50;99.90;;;;;;6184166;23;20012;-81
2023/01/07 11:00:30;;;;;;;6.40;2.33;;;12.10;99.90;;;;;;6182486;23;20104;-81
2023/01/07 11:02:58;;;;;;;7.22;2.38;;;11.50;99.90;;;;;;6158096;23;20019;-82
2023/01/07 11:05:46;;;;;;;8.02;2.50;;;10.60;99.90;;;;;;6157405;23;20338;-82
2023/01/07 11:08:38;;;;;;;7.88;2.60;;;10.60;99.90;;;;;;6184505;23;20028;-83
2023/01/07 11:11:15;;;;;;;7.70;2.20;;;10.60;99.90;;;;;;6184008;23;20369;-82
2023/01/07 11:14:06;;;;;;;6.72;2.45;;;12.30;99.90;;;;;;6156133;23;20013;-82
2023/01/07 11:16:52;;;;;;;7.95;2.47;;;12.30;99.90;;;;;;6180199;23;20528;-82
2023/01/07 11:19:17;;;;;;;7.22;2.42;;;11.90;99.90;;;;;;6183531;23;20021;-82
2023/01/07 11:21:45;;;;;;;8.68;2.60;;;11.80;99.90;;;;;;6156000;23;20017;-82
2023/01/07 11:24:31;;;;;;;10.02;2.25;;;11.90;99.90;;;;;;6156996;23;20445;-82
2023/01/07 11:27:14;;;;;;;7.05;2.63;;;11.90;99.90;;;;;;6184879;23;20013;-82
2023/01/07 11:29:59;;;;;;;7.60;2.50;;;10.60;99.90;;;;;;6156996;23;20025;-82
2023/01/07 11:32:35;;;;;;;6.45;2.30;;;10.60;99.90;;;;;;6157370;23;20091;-82
2023/01/07 11:35:27;;;;;;;7.55;2.38;;;10.10;99.90;;;;;;6156182;23;20017;-82
2023/01/07 11:37:54;;;;;;;8.07;2.55;;;10.60;99.90;;;;;;6157627;23;20437;-82
2023/01/07 11:40:21;;;;;;;7.72;2.50;;;10.60;99.90;;;;;;6184020;23;20317;-82
2023/01/07 11:43:20;;;;;;;7.53;2.50;;;10.60;99.90;;;;;;6183452;23;20092;-80
2023/01/07 11:45:50;;;;;;;6.38;2.38;;;10.60;99.90;;;;;;6180174;23;20020;-82
2023/01/07 11:48:29;;;;;;;6.85;2.50;;;10.60;99.90;;;;;;6186386;23;20017;-82
2023/01/07 11:50:58;;;;;;;6.68;2.00;;;10.60;99.90;;;;;;6157369;23;20021;-83
2023/01/07 11:53:49;;;;;;;6.60;2.28;;;11.50;99.90;;;;;;6186895;23;20068;-83
2023/01/07 11:56:33;;;;;;;6.63;2.10;;;10.60;99.90;;;;;;6185874;23;20017;-84
2023/01/07 11:59:14;;;;;;;7.20;2.25;;;11.90;99.90;;;;;;6184641;23;20041;-84
2023/01/07 12:01:51;;;;;;;7.03;2.13;;;10.70;99.90;;;;;;6187031;23;20025;-84
2023/01/07 12:04:32;;;;;;;6.22;2.20;;;12.00;99.90;;;;;;6159160;23;20103;-82
2023/01/07 12:07:11;;;;;;;6.38;2.33;;;11.80;99.90;;;;;;6160372;23;20005;-83
2023/01/07 12:09:39;;;;;;;7.47;2.20;;;10.80;99.90;;;;;;6157847;23;20521;-81
2023/01/07 12:12:37;;;;;;;6.75;2.45;;;10.80;99.90;;;;;;6156824;23;20021;-81
2023/01/07 12:15:25;;;;;;;6.53;2.30;;;10.90;99.90;;;;;;6184533;23;20013;-82
2023/01/07 12:18:06;;;;;;;7.72;2.30;;;10.90;99.90;;;;;;6183422;23;20049;-82
2023/01/07 12:20:52;;;;;;;8.10;2.75;;;10.90;99.90;;;;;;6158111;23;20048;-82
2023/01/07 12:23:42;;;;;;;6.60;2.35;;;10.90;99.90;;;;;;6183356;23;20048;-82
2023/01/07 12:26:46;;;;;;;6.85;2.47;;;10.90;99.90;;;;;;6158249;23;20017;-82
2023/01/07 12:29:38;;;;;;;7.25;2.50;;;10.90;99.90;;;;;;6132847;23;20088;-82
2023/01/07 12:32:06;;;;;;;8.57;2.67;;;10.90;99.90;;;;;;6157887;23;20021;-82
2023/01/07 12:34:46;;;;;;;7.72;2.55;;;11.00;99.90;;;;;;6158769;23;20013;-82
2023/01/07 12:37:34;;;;;;;6.75;2.53;;;11.10;99.90;;;;;;6158003;23;20017;-79
2023/01/07 12:40:09;;;;;;;7.40;2.33;;;11.80;99.90;;;;;;6185278;23;20028;-80
2023/01/07 12:42:39;;;;;;;7.35;2.50;;;11.10;99.90;;;;;;6159032;23;20492;-81
2023/01/07 12:45:12;;;;;;;7.70;2.35;;;11.20;99.90;;;;;;6184826;23;20090;-81
2023/01/07 12:47:49;;;;;;;7.63;2.40;;;11.20;99.90;;;;;;6184992;23;20438;-81
2023/01/07 12:50:17;;;;;;;6.53;2.60;;;11.10;99.90;;;;;;6185020;23;20009;-81
2023/01/07 12:52:54;;;;;;;7.40;2.65;;;11.30;99.90;;;;;;6184230;23;20020;-81
2023/01/07 12:55:27;;;;;;;7.05;2.20;;;11.90;99.90;;;;;;6162697;23;20021;-80
2023/01/07 12:58:05;;;;;;;6.70;2.30;;;11.20;99.90;;;;;;6160373;23;20013;-81
2023/01/07 13:00:41;;;;;;;7.50;2.50;;;11.20;99.90;;;;;;6151409;23;20450;-81
2023/01/07 13:03:45;;;;;;;7.00;2.42;;;11.20;99.90;;;;;;6185916;23;20013;-81
2023/01/07 13:06:35;;;;;;;7.65;2.30;;;11.00;99.90;;;;;;6183581;23;20052;-81
2023/01/07 13:09:15;;;;;;;6.10;2.20;;;11.00;99.90;;;;;;6185002;23;20012;-80
2023/01/07 13:14:57;;;;;;;7.57;2.10;;;10.90;99.90;;;;;;6157837;23;20104;-80
2023/01/07 13:17:28;;;;;;;6.82;2.20;;;11.00;99.90;;;;;;6185125;23;20017;-80
2023/01/07 13:19:54;;;;;;;6.15;2.15;;;11.20;99.90;;;;;;6184777;23;20442;-80
2023/01/07 13:22:51;;;;;;;6.13;2.00;;;12.10;99.90;;;;;;6183175;23;20032;-80
2023/01/07 13:25:36;;;;;;;6.78;2.10;;;11.00;99.90;;;;;;6139224;23;20104;-81
2023/01/07 13:28:28;;;;;;;6.90;2.10;;;10.90;99.90;;;;;;6157147;23;20021;-79
2023/01/07 13:33:59;;;;;;;8.13;2.40;;;11.00;99.90;;;;;;6155123;23;20021;-80
2023/01/07 13:37:09;;;;;;;6.80;2.38;;;10.10;99.90;;;;;;6151703;23;20022;-81
2023/01/07 13:40:03;;;;;;;7.75;2.15;;;11.00;99.90;;;;;;6155276;23;20014;-80
2023/01/07 13:42:52;;;;;;;5.85;2.10;;;11.10;99.90;;;;;;6153590;23;20024;-80
2023/01/07 13:45:39;;;;;;;7.28;2.08;;;11.10;99.90;;;;;;6152648;23;20411;-80
2023/01/07 13:48:18;;;;;;;6.63;2.15;;;11.10;99.90;;;;;;6155072;23;20014;-80
2023/01/07 13:50:59;;;;;;;7.32;2.28;;;11.10;99.90;;;;;;6151942;23;20013;-80
2023/01/07 13:53:25;;;;;;;8.88;2.30;;;11.10;99.90;;;;;;6152993;23;20013;-80
2023/01/07 13:55:52;;;;;;;6.20;2.10;;;12.00;99.90;;;;;;6152045;23;20748;-80
2023/01/07 13:58:30;;;;;;;7.85;2.38;;;11.10;99.90;;;;;;6154994;23;20021;-80
2023/01/07 14:01:05;;;;;;;6.95;2.22;;;12.20;99.90;;;;;;6148709;23;20025;-80
2023/01/07 14:03:43;;;;;;;8.30;2.40;;;11.00;99.90;;;;;;6152131;23;20014;-80
2023/01/07 14:06:20;;;;;;;6.75;2.30;;;10.90;99.90;;;;;;6154233;23;20018;-80
2023/01/07 14:08:54;;;;;;;7.25;2.50;;;11.30;99.90;;;;;;6154804;23;20049;-80
2023/01/07 14:11:53;;;;;;;9.05;2.70;;;11.40;99.90;;;;;;6152329;23;20021;-81
2023/01/07 14:14:54;;;;;;;7.03;2.50;;;10.80;99.90;;;;;;6153061;23;20064;-80